Latest Weather Observations for Forbes

IDN60801

Issued at 9:02 pm EDT Sunday 14 February 2016 (issued every 30 minutes, with the page automatically refreshed every 10 minutes)

About weather observations | Map of weather stations | Latest weather observations for NSW | Other Formats
Station Details ID: 065103 Name: FORBES AIRPORT AWS Lat: -33.36 Lon: 147.92 Height: 230.4 m
Data from the previous 72 hours. | See also: Recent months at Forbes
Date/Time
EDT
Temp
°C
App
Temp
°C
Dew
Point
Rel
Hum
%
Delta-T
°C
Wind Press
QNH
hPa
Press
MSL
hPa
Rain
since 9 am
mm
Dir
 
Spd
km/h
Gust
km/h
Spd
kts
Gust
kts
14/09:00pm 29.8 25.2 6.5 23 12.6 SSW 20 30 11 16 1009.3 1008.0 0.0
14/08:30pm 30.9 26.3 6.7 22 13.2 SW 20 32 11 17 1008.8 1007.5 0.0
14/08:00pm 31.9 27.1 7.5 22 13.5 SSW 22 30 12 16 1008.1 1006.9 0.0
14/07:30pm 33.5 29.3 8.2 21 14.3 SW 20 32 11 17 1007.7 1006.5 0.0
14/07:00pm 34.5 29.9 8.3 20 14.9 SW 22 32 12 17 1007.3 1006.1 0.0
14/06:30pm 35.4 30.6 9.0 20 15.2 SW 24 32 13 17 1007.1 1005.9 0.0
14/06:00pm 36.3 31.5 9.0 19 15.8 SW 24 39 13 21 1006.9 1005.6 0.0
14/05:30pm 36.8 31.9 8.6 18 16.2 SW 24 32 13 17 1006.7 1005.4 0.0
14/05:00pm 37.6 34.2 9.2 18 16.6 SW 17 26 9 14 1006.6 1005.3 0.0
14/04:30pm 37.9 34.2 9.5 18 16.7 SW 19 28 10 15 1006.6 1005.3 0.0
14/04:00pm 38.4 35.0 10.7 19 16.6 WSW 19 33 10 18 1006.8 1005.5 0.0
14/03:30pm 38.5 35.5 10.8 19 16.6 W 17 22 9 12 1007.0 1005.7 0.0
14/03:00pm 36.9 33.4 10.2 20 15.8 SW 19 26 10 14 1007.4 1006.2 0.0
14/02:30pm 37.5 35.7 12.2 22 15.4 WSW 13 19 7 10 1007.8 1006.6 0.0
14/02:00pm 36.7 34.9 12.2 23 14.9 W 13 22 7 12 1008.1 1006.9 0.0
14/01:30pm 35.9 33.5 12.8 25 14.1 WSW 17 30 9 16 1008.4 1007.2 0.0
14/01:00pm 36.5 34.5 13.9 26 14.1 WSW 17 24 9 13 1008.8 1007.5 0.0
14/12:30pm 35.6 35.3 14.3 28 13.3 WNW 9 26 5 14 1009.1 1007.8 0.0
14/12:00pm 35.0 32.6 14.3 29 12.9 WNW 20 35 11 19 1009.7 1008.4 0.0
14/11:30am 34.6 32.4 14.5 30 12.5 WNW 19 33 10 18 1010.0 1008.7 0.0
14/11:00am 33.8 31.7 14.8 32 11.9 WNW 19 33 10 18 1010.2 1008.9 0.0
14/10:30am 33.3 31.2 15.3 34 11.3 WNW 20 30 11 16 1010.4 1009.1 0.0
14/10:00am 32.4 30.7 15.8 36 10.5 NNW 19 24 10 13 1010.2 1008.9 0.0
14/09:30am 31.8 30.2 16.5 39 9.7 NNW 20 30 11 16 1010.6 1009.3 0.0
14/09:00am 29.3 26.7 15.8 44 8.4 NNW 24 30 13 16 1010.1 1008.8 0.0
14/08:30am 27.4 27.0 15.1 47 7.5 NNW 11 19 6 10 1010.1 1008.8 0.0
14/08:00am 24.2 21.8 12.5 48 6.8 NNE 17 22 9 12 1009.8 1008.5 0.0
14/07:30am 22.8 20.1 11.8 50 6.3 N 17 22 9 12 1009.6 1008.3 0.0
14/07:00am 21.8 18.3 10.9 50 6.1 NNE 20 24 11 13 1009.4 1008.1 0.0
14/06:30am 19.4 16.6 8.4 49 5.8 NNE 13 17 7 9 1009.5 1008.2 0.0
14/06:00am 18.6 15.5 7.4 48 5.7 NE 13 17 7 9 1009.2 1007.9 0.0
14/05:30am 18.8 15.6 6.9 46 6.0 NE 13 17 7 9 1009.1 1007.8 0.0
14/05:00am 19.5 17.2 7.3 45 6.3 NE 9 11 5 6 1008.8 1007.5 0.0
14/04:30am 19.5 17.5 6.9 44 6.4 ENE 7 11 4 6 1008.8 1007.5 0.0
14/04:00am 20.4 19.8 7.4 43 6.7 CALM 0 0 0 0 1008.6 1007.4 0.0
14/03:30am 20.5 18.6 6.8 41 7.0 N 6 9 3 5 1008.5 1007.3 0.0
14/03:00am 21.3 18.6 7.2 40 7.3 NNE 11 13 6 7 1008.3 1007.1 0.0
14/02:30am 21.7 18.5 6.8 38 7.7 N 13 15 7 8 1008.3 1007.1 0.0
14/02:00am 22.0 18.4 6.7 37 7.9 NNE 15 15 8 8 1008.4 1007.2 0.0
14/01:30am 22.9 19.4 7.1 36 8.3 N 15 17 8 9 1008.6 1007.4 0.0
14/01:00am 22.3 19.3 6.1 35 8.3 N 11 13 6 7 1008.8 1007.5 0.0
14/12:30am 22.9 19.2 6.2 34 8.6 NNE 15 15 8 8 1008.8 1007.5 0.0
14/12:00am 23.4 20.0 5.8 32 9.0 N 13 17 7 9 1008.9 1007.6 0.0
 
Date/Time
EDT
Temp
°C
App
Temp
°C
Dew
Point
Rel
Hum
%
Delta-T
°C
Wind Press
QNH
hPa
Press
MSL
hPa
Rain
since 9 am
mm
Dir
 
Spd
km/h
Gust
km/h
Spd
kts
Gust
kts
13/11:30pm 23.8 20.4 5.7 31 9.3 NNE 13 15 7 8 1009.0 1007.7 0.0
13/11:00pm 24.6 21.2 5.9 30 9.7 N 13 15 7 8 1009.0 1007.7 0.0
13/10:30pm 25.3 21.2 6.0 29 10.0 NNE 17 17 9 9 1009.1 1007.8 0.0
13/10:00pm 25.5 21.2 5.1 27 10.5 NNE 17 17 9 9 1009.1 1007.8 0.0
13/09:30pm 26.7 22.7 5.1 25 11.2 N 15 17 8 9 1008.9 1007.6 0.0
13/09:00pm 27.5 23.5 5.1 24 11.6 N 15 17 8 9 1008.6 1007.4 0.0
13/08:30pm 28.6 25.0 4.8 22 12.4 N 13 13 7 7 1008.4 1007.2 0.0
13/08:00pm 31.4 28.9 6.5 21 13.5 NNW 9 13 5 7 1008.3 1007.1 0.0
13/07:30pm 35.3 34.3 10.4 22 14.6 W 6 11 3 6 1008.1 1006.9 0.0
13/07:00pm 36.1 36.1 11.0 22 15.0 WNW 2 6 1 3 1008.1 1006.9 0.0
13/06:30pm 36.3 35.4 11.2 22 15.0 NW 7 13 4 7 1008.1 1006.9 0.0
13/06:00pm 36.7 35.3 12.2 23 14.9 W 11 24 6 13 1008.2 1007.0 0.0
13/05:30pm 36.0 35.0 12.3 24 14.4 N 9 17 5 9 1008.4 1007.2 0.0
13/05:00pm 35.7 34.0 12.6 25 14.1 NW 13 24 7 13 1008.6 1007.4 0.0
13/04:30pm 36.1 35.2 13.6 26 13.9 WSW 11 22 6 12 1008.9 1007.6 0.0
13/04:00pm 35.8 34.2 13.9 27 13.6 WNW 15 20 8 11 1009.3 1008.0 0.0
13/03:30pm 35.5 33.6 14.2 28 13.2 NNW 17 30 9 16 1009.8 1008.5 0.0
13/03:00pm 35.4 33.9 15.2 30 12.8 NW 17 32 9 17 1010.3 1009.0 0.0
13/02:30pm 35.9 35.3 16.6 31 12.4 NNW 15 28 8 15 1010.6 1009.3 0.0
13/02:00pm 34.8 33.4 16.6 33 11.7 WNW 19 32 10 17 1011.2 1010.0 0.0
13/01:30pm 34.5 33.4 17.3 36 11.1 NNW 19 28 10 15 1011.6 1010.4 0.0
13/01:00pm 33.8 32.8 17.5 38 10.6 NW 19 30 10 16 1012.0 1010.8 0.0
13/12:30pm 33.4 32.8 17.5 38 10.3 NNW 17 28 9 15 1012.4 1011.2 0.0
13/12:00pm 32.7 31.8 17.7 40 9.7 NNW 19 28 10 15 1012.7 1011.5 0.0
13/11:30am 31.0 28.8 17.0 43 8.9 N 24 32 13 17 1013.0 1011.8 0.0
13/11:00am 30.6 28.3 17.7 46 8.3 NNW 26 33 14 18 1013.2 1012.0 0.0
13/10:30am 30.1 27.9 17.9 48 7.9 N 26 35 14 19 1013.6 1012.3 0.0
13/10:00am 29.2 26.3 18.0 51 7.2 N 30 41 16 22 1013.6 1012.3 0.0
13/09:30am 28.1 26.4 18.2 55 6.4 N 24 32 13 17 1013.7 1012.4 0.0
13/09:00am 26.3 25.2 17.4 58 5.6 NNE 19 24 10 13 1013.7 1012.4 0.0
13/08:30am 24.1 23.1 15.6 59 5.2 NNE 15 19 8 10 1013.6 1012.3 0.0
13/08:00am 22.3 22.2 13.9 59 4.9 NE 7 9 4 5 1013.4 1012.1 0.0
13/07:30am 21.2 20.8 12.9 59 4.8 NE 7 9 4 5 1013.0 1011.8 0.0
13/07:00am 19.7 20.0 10.9 57 4.8 CALM 0 0 0 0 1012.8 1011.6 0.0
13/06:30am 19.6 19.8 10.6 56 4.9 CALM 0 0 0 0 1012.5 1011.3 0.0
13/06:00am 20.1 19.2 10.8 55 5.1 NE 6 9 3 5 1012.3 1011.1 0.0
13/05:30am 20.4 19.5 10.8 54 5.3 NE 6 7 3 4 1012.1 1010.9 0.0
13/05:00am 20.6 19.5 10.7 53 5.5 NE 7 13 4 7 1012.0 1010.8 0.0
13/04:30am 21.0 20.1 10.5 51 5.8 ENE 6 7 3 4 1012.0 1010.8 0.0
13/04:00am 20.2 20.0 9.2 49 5.9 CALM 0 0 0 0 1012.1 1010.9 0.0
13/03:30am 21.0 19.8 9.6 48 6.2 NE 6 7 3 4 1011.9 1010.7 0.0
13/03:00am 21.6 19.0 9.5 46 6.6 NE 13 15 7 8 1011.9 1010.7 0.0
13/02:30am 22.6 20.5 9.7 44 7.1 NE 11 15 6 8 1012.0 1010.8 0.0
13/02:00am 22.3 19.9 8.8 42 7.3 NNE 11 17 6 9 1012.1 1010.9 0.0
13/01:30am 22.3 20.5 8.1 40 7.5 NE 7 9 4 5 1012.1 1010.9 0.0
13/01:00am 22.9 20.4 8.2 39 7.8 ENE 11 11 6 6 1012.2 1011.0 0.0
13/12:30am 23.0 20.7 7.5 37 8.2 NNE 9 11 5 6 1012.1 1010.9 0.0
13/12:00am 22.6 19.7 6.4 35 8.4 NNE 11 15 6 8 1012.0 1010.8 0.0
 
Date/Time
EDT
Temp
°C
App
Temp
°C
Dew
Point
Rel
Hum
%
Delta-T
°C
Wind Press
QNH
hPa
Press
MSL
hPa
Rain
since 9 am
mm
Dir
 
Spd
km/h
Gust
km/h
Spd
kts
Gust
kts
12/11:30pm 23.4 20.8 6.2 33 8.9 NNE 9 13 5 7 1012.0 1010.8 0.0
12/11:00pm 23.4 19.4 4.9 30 9.3 NNE 15 17 8 9 1012.0 1010.8 0.0
12/10:30pm 24.1 20.0 4.5 28 9.8 NE 15 17 8 9 1012.1 1010.9 0.0
12/10:00pm 24.5 20.6 3.2 25 10.5 ENE 13 15 7 8 1012.1 1010.9 0.0
12/09:30pm 25.4 24.0 3.4 24 10.9 CALM 0 0 0 0 1011.9 1010.7 0.0
12/09:00pm 27.1 25.8 4.2 23 11.7 CALM 0 0 0 0 1011.8 1010.6 0.0
12/08:30pm 29.1 26.8 4.6 21 12.7 WNW 6 6 3 3 1011.6 1010.4 0.0
12/08:00pm 31.5 29.4 6.5 21 13.6 W 7 9 4 5 1011.4 1010.2 0.0
12/07:30pm 33.3 31.1 8.0 21 14.2 W 9 11 5 6 1011.2 1010.0 0.0
12/07:00pm 34.2 32.6 8.8 21 14.5 WSW 7 13 4 7 1011.0 1009.8 0.0
12/06:30pm 34.4 33.0 9.6 22 14.3 WSW 7 17 4 9 1010.9 1009.6 0.0
12/06:00pm 34.6 33.1 10.4 23 14.2 NW 9 20 5 11 1010.9 1009.6 0.0
12/05:30pm 34.5 32.7 11.0 24 13.9 W 11 17 6 9 1011.1 1009.9 0.0
12/05:00pm 34.3 32.3 11.4 25 13.6 S 13 20 7 11 1011.1 1009.9 0.0
12/04:30pm 34.7 33.2 13.0 27 13.2 WSW 13 20 7 11 1011.3 1010.1 0.0
12/04:00pm 34.6 33.4 14.0 29 12.7 SW 13 24 7 13 1011.6 1010.4 0.0
12/03:30pm 33.8 33.3 13.8 30 12.3 WNW 9 22 5 12 1012.0 1010.8 0.0
12/03:00pm 34.3 33.5 15.2 31 12.0 SW 13 24 7 13 1012.4 1011.2 0.0
12/02:30pm 33.5 32.8 15.5 34 11.3 NW 13 20 7 11 1012.7 1011.5 0.0
12/02:00pm 33.6 35.0 16.5 36 10.9 ESE 4 19 2 10 1013.1 1011.9 0.0
12/01:30pm 32.2 32.4 15.7 37 10.4 NW 9 19 5 10 1013.4 1012.1 0.0
12/01:00pm 32.4 32.2 16.7 39 10.0 NW 13 22 7 12 1013.8 1012.5 0.0
12/12:30pm 31.9 32.6 17.0 41 9.5 WNW 9 20 5 11 1014.3 1013.0 0.0
12/12:00pm 30.9 31.2 16.9 43 8.9 NW 11 24 6 13 1014.7 1013.4 0.0
12/11:30am 30.2 30.6 17.3 46 8.2 WNW 11 17 6 9 1015.0 1013.8 0.0
12/11:00am 29.9 30.9 17.7 48 7.8 ESE 9 15 5 8 1015.3 1014.1 0.0
12/10:30am 27.8 28.2 16.4 50 7.1 NE 9 17 5 9 1015.3 1014.1 0.0
12/10:00am 27.1 27.2 16.4 52 6.7 ENE 11 19 6 10 1015.4 1014.2 0.0
12/09:30am 26.4 26.0 16.3 53 6.3 E 13 22 7 12 1015.5 1014.3 0.0
12/09:00am 24.8 25.0 15.7 57 5.6 E 9 15 5 8 1015.5 1014.3 0.0
12/08:30am 23.2 21.9 14.7 58 5.1 E 15 19 8 10 1015.3 1014.1 0.0
12/08:00am 21.5 20.0 13.2 59 4.8 E 13 15 7 8 1014.9 1013.7 0.0
12/07:30am 19.5 17.8 11.3 59 4.5 ESE 11 15 6 8 1014.6 1013.3 0.0
12/07:00am 18.4 16.7 9.7 57 4.7 ESE 9 15 5 8 1014.2 1012.9 0.0
12/06:30am 17.2 15.7 8.4 56 4.6 SSE 6 7 3 4 1013.8 1012.5 0.0
12/06:00am 17.6 16.4 8.2 54 4.9 E 4 7 2 4 1013.2 1012.0 0.0
12/05:30am 17.4 15.2 7.7 53 5.0 ESE 9 9 5 5 1012.9 1011.7 0.0
12/05:00am 17.5 15.2 7.5 52 5.1 NE 9 9 5 5 1012.5 1011.3 0.0
12/04:30am 18.0 15.7 7.4 50 5.4 ENE 9 11 5 6 1012.6 1011.4 0.0
12/04:00am 18.3 17.7 7.4 49 5.6 CALM 0 0 0 0 1012.8 1011.6 0.0
12/03:30am 18.2 15.7 6.7 47 5.8 NNE 9 11 5 6 1013.0 1011.8 0.0
12/03:00am 19.4 16.3 7.2 45 6.3 NNE 13 15 7 8 1013.1 1011.9 0.0
12/02:30am 19.0 16.0 6.2 43 6.4 N 11 13 6 7 1013.5 1012.2 0.0
12/02:00am 18.9 15.7 5.0 40 6.8 NNE 11 15 6 8 1013.9 1012.6 0.0
12/01:30am 20.7 17.3 5.9 38 7.5 ENE 13 17 7 9 1014.1 1012.8 0.0
12/01:00am 21.4 18.7 5.7 36 7.9 E 9 13 5 7 1014.2 1012.9 0.0
12/12:30am 20.7 17.0 4.3 34 8.0 ENE 13 15 7 8 1014.3 1013.0 0.0
12/12:00am 22.7 20.3 5.2 32 8.8 E 7 9 4 5 1014.6 1013.3 0.0
 
Date/Time
EDT
Temp
°C
App
Temp
°C
Dew
Point
Rel
Hum
%
Delta-T
°C
Wind Press
QNH
hPa
Press
MSL
hPa
Rain
since 9 am
mm
Dir
 
Spd
km/h
Gust
km/h
Spd
kts
Gust
kts
11/11:30pm 22.3 18.5 3.9 30 9.0 NE 13 17 7 9 1014.6 1013.3 0.0
11/11:00pm 23.5 19.8 4.5 29 9.5 N 13 17 7 9 1014.1 1012.8 0.0
11/10:30pm 22.9 20.5 2.4 26 9.8 NE 4 15 2 8 1013.4 1012.1 0.0
11/10:00pm 25.0 21.1 3.6 25 10.6 NNW 13 13 7 7 1012.6 1011.4 0.0
11/09:30pm 27.3 22.5 4.4 23 11.7 NW 19 26 10 14 1012.1 1010.9 0.0

Other Formats:

Comma delimited format used in spreadsheet applications
http://www.bom.gov.au/fwo/IDN60801/IDN60801.94715.axf

JavaScript Object Notation format (JSON) in row-major order
http://www.bom.gov.au/fwo/IDN60801/IDN60801.94715.json